This is the latest recevied weather packets stored in our database for station/object Dunnningn. If no packets are shown the sender has not sent any weather packets the latest 10 day(s).
| Time | Temp. | Humidity | Pressure | Rain* | Wind** | Luminosity | Snow |
|---|---|---|---|---|---|---|---|
| 1777714331 | 21.67° C | 36% | 1022.1 hPa | 0 mm | - | - | - |
| 1777712530 | 20.56° C | 44% | 1022.2 hPa | 0 mm | - | - | - |
| 1777710731 | 19.44° C | 42% | 1022.4 hPa | 0 mm | - | - | - |
| 1777708931 | 17.78° C | 49% | 1022.3 hPa | 0 mm | - | - | - |
| 1777707130 | 16.11° C | 53% | 1022.6 hPa | 0 mm | - | - | - |
| 1777705333 | 13.33° C | 61% | 1022.7 hPa | 0 mm | - | - | - |
| 1777703532 | 10° C | 68% | 1022.8 hPa | 0 mm | - | - | - |
| 1777701731 | 7.22° C | 73% | 1023 hPa | 0 mm | - | - | - |
| 1777699931 | 5.56° C | 77% | 1022.8 hPa | 0 mm | - | - | - |
| 1777698131 | 4.44° C | 80% | 1022.9 hPa | 0 mm | - | - | - |
| 1777696331 | 3.33° C | 80% | 1023 hPa | 0 mm | - | - | - |
| 1777694533 | 3.33° C | 80% | 1023.1 hPa | 0 mm | - | - | - |
| 1777692731 | 3.33° C | 80% | 1023.3 hPa | 0 mm | - | - | - |
| 1777690931 | 3.33° C | 79% | 1023.3 hPa | 0 mm | - | - | - |
| 1777689134 | 3.89° C | 77% | 1023.5 hPa | 0 mm | - | - | - |
| 1777687332 | 3.89° C | 77% | 1023.6 hPa | 0 mm | - | - | - |
| 1777685531 | 4.44° C | 76% | 1023.8 hPa | 0 mm | - | - | - |
| 1777683731 | 5° C | 75% | 1023.8 hPa | 0 mm | - | - | - |
| 1777681929 | 5.56° C | 73% | 1024 hPa | 0 mm | - | - | - |
| 1777680129 | 6.11° C | 71% | 1024 hPa | 0 mm | - | - | - |
| 1777678330 | 6.67° C | 68% | 1024.2 hPa | 0 mm | - | - | - |
| 1777676530 | 7.78° C | 67% | 1024 hPa | 0 mm | - | - | - |
| 1777674730 | 8.33° C | 65% | 1024.1 hPa | 0 mm | - | - | - |
| 1777671130 | 10° C | 58% | 1024.1 hPa | 0 mm | - | - | - |
| 1777669330 | 11.11° C | 58% | 1024 hPa | 0 mm | - | - | - |
* Rain since midnight (hover to see other rain measurements)
** Current wind speed in m/s (hover to see current wind gust speed)